sensor_id;sensor_type;location;lat;lon;timestamp;pressure;altitude;pressure_sealevel;temperature;humidity
58668;BME280;59852;43.086;25.634;2023-04-26T00:02:21;97918.03;;;10.42;91.88
58668;BME280;59852;43.086;25.634;2023-04-26T00:04:49;97916.03;;;10.34;93.72
58668;BME280;59852;43.086;25.634;2023-04-26T00:07:15;97915.78;;;10.38;93.18
58668;BME280;59852;43.086;25.634;2023-04-26T00:09:40;97913.66;;;10.31;93.15
58668;BME280;59852;43.086;25.634;2023-04-26T00:12:06;97908.84;;;10.27;92.67
58668;BME280;59852;43.086;25.634;2023-04-26T00:14:31;97910.75;;;10.25;93.10
58668;BME280;59852;43.086;25.634;2023-04-26T00:16:58;97906.91;;;10.29;92.64
58668;BME280;59852;43.086;25.634;2023-04-26T00:19:23;97891.38;;;10.27;92.86
58668;BME280;59852;43.086;25.634;2023-04-26T00:21:48;97898.66;;;10.24;93.94
58668;BME280;59852;43.086;25.634;2023-04-26T00:24:14;97897.88;;;10.33;93.67
58668;BME280;59852;43.086;25.634;2023-04-26T00:26:39;97890.72;;;10.35;93.95
58668;BME280;59852;43.086;25.634;2023-04-26T00:29:04;97897.22;;;10.41;93.54
58668;BME280;59852;43.086;25.634;2023-04-26T00:31:30;97894.16;;;10.36;94.07
58668;BME280;59852;43.086;25.634;2023-04-26T00:33:55;97899.34;;;10.26;94.42
58668;BME280;59852;43.086;25.634;2023-04-26T00:36:20;97903.09;;;10.33;93.77
58668;BME280;59852;43.086;25.634;2023-04-26T00:38:46;97892.44;;;10.46;93.60
58668;BME280;59852;43.086;25.634;2023-04-26T00:41:11;97892.25;;;10.38;94.12
58668;BME280;59852;43.086;25.634;2023-04-26T00:43:37;97892.13;;;10.39;93.06
58668;BME280;59852;43.086;25.634;2023-04-26T00:46:03;97884.47;;;10.26;93.81
58668;BME280;59852;43.086;25.634;2023-04-26T00:48:29;97890.03;;;10.33;93.86
58668;BME280;59852;43.086;25.634;2023-04-26T00:50:54;97884.34;;;10.28;93.37
58668;BME280;59852;43.086;25.634;2023-04-26T00:53:20;97886.13;;;10.27;93.44
58668;BME280;59852;43.086;25.634;2023-04-26T00:55:46;97886.59;;;10.32;93.41
58668;BME280;59852;43.086;25.634;2023-04-26T00:58:11;97881.31;;;10.23;94.45
58668;BME280;59852;43.086;25.634;2023-04-26T01:00:37;97882.44;;;10.30;94.63
58668;BME280;59852;43.086;25.634;2023-04-26T01:03:02;97877.25;;;10.19;95.17
58668;BME280;59852;43.086;25.634;2023-04-26T01:05:27;97882.06;;;10.34;95.21
58668;BME280;59852;43.086;25.634;2023-04-26T01:07:53;97878.28;;;10.27;94.90
58668;BME280;59852;43.086;25.634;2023-04-26T01:10:18;97873.63;;;10.31;94.77
58668;BME280;59852;43.086;25.634;2023-04-26T01:12:44;97878.84;;;10.31;95.14
58668;BME280;59852;43.086;25.634;2023-04-26T01:15:10;97870.25;;;10.40;94.75
58668;BME280;59852;43.086;25.634;2023-04-26T01:17:35;97872.31;;;10.37;94.61
58668;BME280;59852;43.086;25.634;2023-04-26T01:20:02;97873.06;;;10.27;94.58
58668;BME280;59852;43.086;25.634;2023-04-26T01:22:31;97872.63;;;10.22;95.17
58668;BME280;59852;43.086;25.634;2023-04-26T01:24:56;97877.19;;;10.30;94.80
58668;BME280;59852;43.086;25.634;2023-04-26T01:27:22;97874.59;;;10.30;94.28
58668;BME280;59852;43.086;25.634;2023-04-26T01:29:47;97874.16;;;10.25;94.97
58668;BME280;59852;43.086;25.634;2023-04-26T01:32:12;97865.91;;;10.29;95.82
58668;BME280;59852;43.086;25.634;2023-04-26T01:34:38;97865.84;;;10.41;94.58
58668;BME280;59852;43.086;25.634;2023-04-26T01:37:03;97867.06;;;10.37;93.95
58668;BME280;59852;43.086;25.634;2023-04-26T01:39:28;97862.22;;;10.32;94.45
58668;BME280;59852;43.086;25.634;2023-04-26T01:41:55;97859.19;;;10.27;94.52
58668;BME280;59852;43.086;25.634;2023-04-26T01:44:22;97864.03;;;10.20;94.95
58668;BME280;59852;43.086;25.634;2023-04-26T01:46:47;97858.00;;;10.20;94.21
58668;BME280;59852;43.086;25.634;2023-04-26T01:49:13;97855.38;;;10.20;93.67
58668;BME280;59852;43.086;25.634;2023-04-26T01:51:38;97855.72;;;10.26;93.37
58668;BME280;59852;43.086;25.634;2023-04-26T01:54:03;97856.69;;;10.25;93.32
58668;BME280;59852;43.086;25.634;2023-04-26T01:56:29;97849.31;;;10.19;93.51
58668;BME280;59852;43.086;25.634;2023-04-26T01:58:54;97840.19;;;10.25;93.00
58668;BME280;59852;43.086;25.634;2023-04-26T02:01:20;97835.09;;;10.23;92.45
58668;BME280;59852;43.086;25.634;2023-04-26T02:03:46;97845.56;;;10.23;93.64
58668;BME280;59852;43.086;25.634;2023-04-26T02:06:11;97833.09;;;10.16;93.42
58668;BME280;59852;43.086;25.634;2023-04-26T02:08:36;97831.56;;;10.13;93.90
58668;BME280;59852;43.086;25.634;2023-04-26T02:11:02;97829.38;;;10.18;93.76
58668;BME280;59852;43.086;25.634;2023-04-26T02:13:27;97828.09;;;10.13;93.72
58668;BME280;59852;43.086;25.634;2023-04-26T02:15:52;97827.88;;;10.16;94.15
58668;BME280;59852;43.086;25.634;2023-04-26T02:18:18;97822.78;;;10.14;93.75
58668;BME280;59852;43.086;25.634;2023-04-26T02:20:46;97831.81;;;10.10;93.46
58668;BME280;59852;43.086;25.634;2023-04-26T02:23:11;97826.56;;;10.10;92.66
58668;BME280;59852;43.086;25.634;2023-04-26T02:25:37;97825.75;;;10.10;93.09
58668;BME280;59852;43.086;25.634;2023-04-26T02:28:03;97826.38;;;10.02;93.61
58668;BME280;59852;43.086;25.634;2023-04-26T02:30:28;97819.66;;;9.99;93.50
58668;BME280;59852;43.086;25.634;2023-04-26T02:32:54;97823.34;;;9.97;94.33
58668;BME280;59852;43.086;25.634;2023-04-26T02:35:20;97827.13;;;10.04;93.29
58668;BME280;59852;43.086;25.634;2023-04-26T02:37:46;97825.31;;;10.04;93.76
58668;BME280;59852;43.086;25.634;2023-04-26T02:40:16;97826.09;;;9.95;94.20
58668;BME280;59852;43.086;25.634;2023-04-26T02:42:42;97827.34;;;10.01;93.47
58668;BME280;59852;43.086;25.634;2023-04-26T02:45:07;97828.44;;;9.98;93.58
58668;BME280;59852;43.086;25.634;2023-04-26T02:47:33;97829.66;;;9.94;93.80
58668;BME280;59852;43.086;25.634;2023-04-26T02:50:01;97822.38;;;9.98;nan
58668;BME280;59852;43.086;25.634;2023-04-26T02:52:26;97832.72;;;9.99;93.49
58668;BME280;59852;43.086;25.634;2023-04-26T02:54:51;97830.63;;;9.93;93.82
58668;BME280;59852;43.086;25.634;2023-04-26T02:57:17;97830.16;;;9.88;93.83
58668;BME280;59852;43.086;25.634;2023-04-26T02:59:42;97826.59;;;9.89;93.91
58668;BME280;59852;43.086;25.634;2023-04-26T03:02:08;97823.22;;;9.77;94.29
58668;BME280;59852;43.086;25.634;2023-04-26T03:04:33;97832.38;;;9.72;94.87
58668;BME280;59852;43.086;25.634;2023-04-26T03:07:00;97833.66;;;9.77;94.79
58668;BME280;59852;43.086;25.634;2023-04-26T03:09:25;97829.19;;;9.89;94.29
58668;BME280;59852;43.086;25.634;2023-04-26T03:11:51;97832.13;;;9.96;93.80
58668;BME280;59852;43.086;25.634;2023-04-26T03:14:16;97828.38;;;9.89;93.92
58668;BME280;59852;43.086;25.634;2023-04-26T03:16:43;97831.25;;;9.86;94.34
58668;BME280;59852;43.086;25.634;2023-04-26T03:19:08;97838.25;;;9.85;93.94
58668;BME280;59852;43.086;25.634;2023-04-26T03:21:34;97840.03;;;9.85;93.81
58668;BME280;59852;43.086;25.634;2023-04-26T03:23:59;97844.66;;;9.81;94.02
58668;BME280;59852;43.086;25.634;2023-04-26T03:26:24;97850.72;;;9.82;93.27
58668;BME280;59852;43.086;25.634;2023-04-26T03:28:50;97856.78;;;9.82;93.75
58668;BME280;59852;43.086;25.634;2023-04-26T03:31:15;97861.09;;;9.72;93.76
58668;BME280;59852;43.086;25.634;2023-04-26T03:33:41;97865.19;;;9.65;93.94
58668;BME280;59852;43.086;25.634;2023-04-26T03:36:06;97864.91;;;9.68;93.94
58668;BME280;59852;43.086;25.634;2023-04-26T03:38:32;97867.03;;;9.74;94.36
58668;BME280;59852;43.086;25.634;2023-04-26T03:40:57;97871.44;;;9.73;93.73
58668;BME280;59852;43.086;25.634;2023-04-26T03:43:22;97873.91;;;9.75;93.93
58668;BME280;59852;43.086;25.634;2023-04-26T03:45:48;97868.66;;;9.86;93.54
58668;BME280;59852;43.086;25.634;2023-04-26T03:48:13;97871.81;;;9.90;93.39
58668;BME280;59852;43.086;25.634;2023-04-26T03:50:39;97877.78;;;9.81;93.33
58668;BME280;59852;43.086;25.634;2023-04-26T03:53:05;97883.72;;;9.83;93.98
58668;BME280;59852;43.086;25.634;2023-04-26T03:55:30;97882.88;;;9.82;93.49
58668;BME280;59852;43.086;25.634;2023-04-26T03:57:56;97888.38;;;9.79;93.65
58668;BME280;59852;43.086;25.634;2023-04-26T04:00:21;97890.50;;;9.85;94.21
58668;BME280;59852;43.086;25.634;2023-04-26T04:02:47;97893.25;;;9.84;94.42
58668;BME280;59852;43.086;25.634;2023-04-26T04:05:12;97895.59;;;9.87;92.81
58668;BME280;59852;43.086;25.634;2023-04-26T04:07:37;97896.28;;;9.89;92.80
58668;BME280;59852;43.086;25.634;2023-04-26T04:10:03;97898.91;;;9.89;93.13
58668;BME280;59852;43.086;25.634;2023-04-26T04:12:28;97889.91;;;9.82;93.96
58668;BME280;59852;43.086;25.634;2023-04-26T04:14:54;97896.84;;;9.92;94.06
58668;BME280;59852;43.086;25.634;2023-04-26T04:17:19;97895.25;;;9.80;94.95
58668;BME280;59852;43.086;25.634;2023-04-26T04:19:44;97908.94;;;9.72;96.64
58668;BME280;59852;43.086;25.634;2023-04-26T04:22:10;97907.06;;;9.63;97.18
58668;BME280;59852;43.086;25.634;2023-04-26T04:24:35;97907.47;;;9.80;97.44
58668;BME280;59852;43.086;25.634;2023-04-26T04:27:01;97904.75;;;10.02;95.93
58668;BME280;59852;43.086;25.634;2023-04-26T04:29:27;97902.06;;;10.03;94.88
58668;BME280;59852;43.086;25.634;2023-04-26T04:31:53;97906.81;;;10.19;95.26
58668;BME280;59852;43.086;25.634;2023-04-26T04:34:18;97904.06;;;10.21;94.63
58668;BME280;59852;43.086;25.634;2023-04-26T04:36:43;97906.09;;;10.28;93.88
58668;BME280;59852;43.086;25.634;2023-04-26T04:39:09;97911.91;;;10.00;94.95
58668;BME280;59852;43.086;25.634;2023-04-26T04:41:37;97910.53;;;10.17;94.10
58668;BME280;59852;43.086;25.634;2023-04-26T04:44:02;97912.84;;;10.31;92.75
58668;BME280;59852;43.086;25.634;2023-04-26T04:46:28;97911.44;;;10.48;91.75
58668;BME280;59852;43.086;25.634;2023-04-26T04:48:53;97910.09;;;10.53;91.78
58668;BME280;59852;43.086;25.634;2023-04-26T04:51:18;97920.09;;;10.48;91.64
58668;BME280;59852;43.086;25.634;2023-04-26T04:53:44;97915.13;;;10.66;91.80
58668;BME280;59852;43.086;25.634;2023-04-26T04:56:09;97918.41;;;10.68;91.53
58668;BME280;59852;43.086;25.634;2023-04-26T04:58:35;97915.97;;;10.25;93.69
58668;BME280;59852;43.086;25.634;2023-04-26T05:01:00;97914.25;;;10.56;92.37
58668;BME280;59852;43.086;25.634;2023-04-26T05:03:25;97914.03;;;10.69;91.34
58668;BME280;59852;43.086;25.634;2023-04-26T05:05:50;97912.91;;;10.41;94.68
58668;BME280;59852;43.086;25.634;2023-04-26T05:08:16;97903.22;;;10.52;92.77
58668;BME280;59852;43.086;25.634;2023-04-26T05:10:41;97893.88;;;10.59;92.01
58668;BME280;59852;43.086;25.634;2023-04-26T05:13:06;97903.19;;;10.73;90.81
58668;BME280;59852;43.086;25.634;2023-04-26T05:15:32;97896.03;;;10.75;90.29
58668;BME280;59852;43.086;25.634;2023-04-26T05:17:57;97898.31;;;10.69;90.67
58668;BME280;59852;43.086;25.634;2023-04-26T05:20:23;97887.66;;;10.91;89.58
58668;BME280;59852;43.086;25.634;2023-04-26T05:22:49;97878.41;;;10.77;90.58
58668;BME280;59852;43.086;25.634;2023-04-26T05:25:14;97885.94;;;11.01;88.53
58668;BME280;59852;43.086;25.634;2023-04-26T05:27:41;97890.78;;;11.06;88.20
58668;BME280;59852;43.086;25.634;2023-04-26T05:30:06;97895.44;;;11.02;88.60
58668;BME280;59852;43.086;25.634;2023-04-26T05:32:32;97891.75;;;11.14;88.42
58668;BME280;59852;43.086;25.634;2023-04-26T05:34:57;97886.97;;;11.39;87.71
58668;BME280;59852;43.086;25.634;2023-04-26T05:37:22;97891.28;;;11.00;87.46
58668;BME280;59852;43.086;25.634;2023-04-26T05:39:48;97882.16;;;10.84;89.39
58668;BME280;59852;43.086;25.634;2023-04-26T05:42:13;97888.03;;;11.17;88.72
58668;BME280;59852;43.086;25.634;2023-04-26T05:44:39;97883.00;;;11.44;86.75
58668;BME280;59852;43.086;25.634;2023-04-26T05:47:04;97885.09;;;11.51;87.80
58668;BME280;59852;43.086;25.634;2023-04-26T05:49:30;97886.03;;;11.59;86.88
58668;BME280;59852;43.086;25.634;2023-04-26T05:51:55;97885.97;;;11.90;86.03
58668;BME280;59852;43.086;25.634;2023-04-26T05:54:20;97895.88;;;11.86;86.65
58668;BME280;59852;43.086;25.634;2023-04-26T05:56:46;97892.94;;;12.38;83.58
58668;BME280;59852;43.086;25.634;2023-04-26T05:59:11;97892.84;;;12.29;82.94
58668;BME280;59852;43.086;25.634;2023-04-26T06:01:37;97889.78;;;12.24;84.65
58668;BME280;59852;43.086;25.634;2023-04-26T06:04:03;97885.38;;;12.25;84.71
58668;BME280;59852;43.086;25.634;2023-04-26T06:06:28;97886.50;;;12.13;83.99
58668;BME280;59852;43.086;25.634;2023-04-26T06:08:53;97880.13;;;11.57;85.65
58668;BME280;59852;43.086;25.634;2023-04-26T06:11:19;97892.13;;;12.27;84.38
58668;BME280;59852;43.086;25.634;2023-04-26T06:13:45;97886.22;;;11.96;86.51
58668;BME280;59852;43.086;25.634;2023-04-26T06:16:10;97884.84;;;12.12;84.00
58668;BME280;59852;43.086;25.634;2023-04-26T06:18:35;97884.66;;;12.42;82.64
58668;BME280;59852;43.086;25.634;2023-04-26T06:21:01;97888.22;;;12.51;81.89
58668;BME280;59852;43.086;25.634;2023-04-26T06:23:26;97893.63;;;12.49;81.23
58668;BME280;59852;43.086;25.634;2023-04-26T06:25:51;97885.72;;;12.59;80.55
58668;BME280;59852;43.086;25.634;2023-04-26T06:28:17;97878.09;;;12.66;80.04
58668;BME280;59852;43.086;25.634;2023-04-26T06:30:42;97879.56;;;12.78;80.08
58668;BME280;59852;43.086;25.634;2023-04-26T06:33:07;97877.44;;;12.54;79.49
58668;BME280;59852;43.086;25.634;2023-04-26T06:35:38;97879.69;;;12.49;79.58
58668;BME280;59852;43.086;25.634;2023-04-26T06:38:03;97878.69;;;12.87;79.55
58668;BME280;59852;43.086;25.634;2023-04-26T06:40:28;97881.22;;;13.06;77.67
58668;BME280;59852;43.086;25.634;2023-04-26T06:42:53;97879.09;;;12.92;77.21
58668;BME280;59852;43.086;25.634;2023-04-26T06:45:19;97879.31;;;13.08;77.49
58668;BME280;59852;43.086;25.634;2023-04-26T06:47:44;97886.66;;;13.32;75.27
58668;BME280;59852;43.086;25.634;2023-04-26T06:50:11;97875.28;;;13.04;66.84
58668;BME280;59852;43.086;25.634;2023-04-26T06:52:36;97880.88;;;13.29;69.89
58668;BME280;59852;43.086;25.634;2023-04-26T06:55:02;97875.63;;;13.29;66.43
58668;BME280;59852;43.086;25.634;2023-04-26T06:57:28;97874.47;;;13.76;66.76
58668;BME280;59852;43.086;25.634;2023-04-26T06:59:53;97883.78;;;13.89;65.56
58668;BME280;59852;43.086;25.634;2023-04-26T07:02:18;97881.06;;;13.81;65.33
58668;BME280;59852;43.086;25.634;2023-04-26T07:04:44;97884.25;;;13.57;64.72
58668;BME280;59852;43.086;25.634;2023-04-26T07:07:09;97883.69;;;13.63;66.95
58668;BME280;59852;43.086;25.634;2023-04-26T07:09:35;97877.22;;;14.11;65.68
58668;BME280;59852;43.086;25.634;2023-04-26T07:12:01;97877.44;;;14.17;62.69
58668;BME280;59852;43.086;25.634;2023-04-26T07:14:26;97878.41;;;14.42;61.24
58668;BME280;59852;43.086;25.634;2023-04-26T07:16:51;97875.78;;;14.16;61.88
58668;BME280;59852;43.086;25.634;2023-04-26T07:19:17;97884.44;;;14.09;63.93
58668;BME280;59852;43.086;25.634;2023-04-26T07:21:43;97876.44;;;14.18;61.51
58668;BME280;59852;43.086;25.634;2023-04-26T07:24:08;97884.50;;;13.81;60.57
58668;BME280;59852;43.086;25.634;2023-04-26T07:26:34;97878.44;;;13.98;59.80
58668;BME280;59852;43.086;25.634;2023-04-26T07:28:59;97873.81;;;14.44;58.57
58668;BME280;59852;43.086;25.634;2023-04-26T07:31:25;97877.47;;;14.69;59.31
58668;BME280;59852;43.086;25.634;2023-04-26T07:33:50;97873.69;;;14.72;58.73
58668;BME280;59852;43.086;25.634;2023-04-26T07:36:15;97878.66;;;14.49;59.47
58668;BME280;59852;43.086;25.634;2023-04-26T07:38:41;97882.78;;;14.07;59.64
58668;BME280;59852;43.086;25.634;2023-04-26T07:41:07;97874.34;;;13.86;60.99
58668;BME280;59852;43.086;25.634;2023-04-26T07:43:32;97877.81;;;14.04;59.10
58668;BME280;59852;43.086;25.634;2023-04-26T07:46:00;97883.72;;;14.24;58.96
58668;BME280;59852;43.086;25.634;2023-04-26T07:48:26;97879.38;;;14.59;54.74
58668;BME280;59852;43.086;25.634;2023-04-26T07:50:52;97883.47;;;14.87;54.89
58668;BME280;59852;43.086;25.634;2023-04-26T07:53:17;97890.81;;;15.10;55.69
58668;BME280;59852;43.086;25.634;2023-04-26T07:55:42;97882.31;;;15.24;54.26
58668;BME280;59852;43.086;25.634;2023-04-26T07:58:08;97884.97;;;15.32;52.02
58668;BME280;59852;43.086;25.634;2023-04-26T08:00:36;97885.59;;;15.68;53.64
58668;BME280;59852;43.086;25.634;2023-04-26T08:03:03;97880.66;;;15.82;51.26
58668;BME280;59852;43.086;25.634;2023-04-26T08:05:28;97888.94;;;15.36;53.89
58668;BME280;59852;43.086;25.634;2023-04-26T08:07:53;97891.25;;;15.39;52.06
58668;BME280;59852;43.086;25.634;2023-04-26T08:10:19;97887.16;;;14.95;53.07
58668;BME280;59852;43.086;25.634;2023-04-26T08:12:44;97888.78;;;14.96;53.27
58668;BME280;59852;43.086;25.634;2023-04-26T08:15:09;97879.78;;;15.06;54.55
58668;BME280;59852;43.086;25.634;2023-04-26T08:17:35;97881.88;;;15.03;53.88
58668;BME280;59852;43.086;25.634;2023-04-26T08:20:01;97881.47;;;14.81;52.82
58668;BME280;59852;43.086;25.634;2023-04-26T08:22:29;97874.06;;;14.77;54.34
58668;BME280;59852;43.086;25.634;2023-04-26T08:24:54;97878.13;;;15.56;52.02
58668;BME280;59852;43.086;25.634;2023-04-26T08:27:20;97877.69;;;15.76;52.34
58668;BME280;59852;43.086;25.634;2023-04-26T08:29:45;97875.88;;;15.77;50.61
58668;BME280;59852;43.086;25.634;2023-04-26T08:32:10;97874.47;;;15.48;51.42
58668;BME280;59852;43.086;25.634;2023-04-26T08:34:36;97866.22;;;15.43;52.43
58668;BME280;59852;43.086;25.634;2023-04-26T08:37:01;97874.16;;;15.60;52.41
58668;BME280;59852;43.086;25.634;2023-04-26T08:39:27;97885.06;;;15.06;53.34
58668;BME280;59852;43.086;25.634;2023-04-26T08:41:52;97877.06;;;15.24;52.33
58668;BME280;59852;43.086;25.634;2023-04-26T08:44:22;97885.22;;;15.05;53.86
58668;BME280;59852;43.086;25.634;2023-04-26T08:47:02;97886.69;;;14.73;55.58
58668;BME280;59852;43.086;25.634;2023-04-26T08:49:46;97880.97;;;14.52;55.26
58668;BME280;59852;43.086;25.634;2023-04-26T08:52:17;97872.91;;;14.79;55.52
58668;BME280;59852;43.086;25.634;2023-04-26T08:54:47;97863.50;;;15.77;53.53
58668;BME280;59852;43.086;25.634;2023-04-26T08:57:13;97877.97;;;15.57;51.64
58668;BME280;59852;43.086;25.634;2023-04-26T08:59:40;97878.88;;;14.89;52.32
58668;BME280;59852;43.086;25.634;2023-04-26T09:02:06;97878.59;;;15.01;52.28
58668;BME280;59852;43.086;25.634;2023-04-26T09:04:31;97877.44;;;15.03;51.27
58668;BME280;59852;43.086;25.634;2023-04-26T09:07:01;97878.03;;;15.31;52.31
58668;BME280;59852;43.086;25.634;2023-04-26T09:09:27;97874.22;;;15.17;48.98
58668;BME280;59852;43.086;25.634;2023-04-26T09:11:56;97865.66;;;16.15;48.92
58668;BME280;59852;43.086;25.634;2023-04-26T09:14:23;97870.91;;;16.39;49.58
58668;BME280;59852;43.086;25.634;2023-04-26T09:16:49;97869.44;;;16.28;49.64
58668;BME280;59852;43.086;25.634;2023-04-26T09:19:16;97868.03;;;15.51;48.48
58668;BME280;59852;43.086;25.634;2023-04-26T09:21:42;97869.28;;;15.14;49.37
58668;BME280;59852;43.086;25.634;2023-04-26T09:24:11;97869.78;;;16.09;48.80
58668;BME280;59852;43.086;25.634;2023-04-26T09:26:36;97876.84;;;16.49;48.72
58668;BME280;59852;43.086;25.634;2023-04-26T09:31:37;97870.09;;;15.90;47.85
58668;BME280;59852;43.086;25.634;2023-04-26T09:34:03;97865.84;;;15.30;48.38
58668;BME280;59852;43.086;25.634;2023-04-26T09:36:28;97865.56;;;15.41;48.60
58668;BME280;59852;43.086;25.634;2023-04-26T09:38:53;97869.78;;;16.09;48.11
58668;BME280;59852;43.086;25.634;2023-04-26T09:41:19;97867.09;;;16.42;47.80
58668;BME280;59852;43.086;25.634;2023-04-26T09:43:44;97857.56;;;15.67;48.26
58668;BME280;59852;43.086;25.634;2023-04-26T09:46:10;97854.69;;;15.53;48.09
58668;BME280;59852;43.086;25.634;2023-04-26T09:48:35;97865.84;;;15.30;49.83
58668;BME280;59852;43.086;25.634;2023-04-26T09:51:10;97859.50;;;15.57;48.46
58668;BME280;59852;43.086;25.634;2023-04-26T09:53:45;97862.53;;;15.78;46.80
58668;BME280;59852;43.086;25.634;2023-04-26T09:56:15;97861.00;;;16.41;46.04
58668;BME280;59852;43.086;25.634;2023-04-26T10:01:14;97845.97;;;16.50;43.58
58668;BME280;59852;43.086;25.634;2023-04-26T10:03:41;97851.91;;;16.68;42.76
58668;BME280;59852;43.086;25.634;2023-04-26T10:06:07;97845.41;;;17.26;44.85
58668;BME280;59852;43.086;25.634;2023-04-26T10:08:33;97853.91;;;17.44;42.80
58668;BME280;59852;43.086;25.634;2023-04-26T10:10:59;97845.22;;;17.28;43.14
58668;BME280;59852;43.086;25.634;2023-04-26T10:13:25;97847.97;;;17.42;42.28
58668;BME280;59852;43.086;25.634;2023-04-26T10:15:51;97840.97;;;17.18;40.83
58668;BME280;59852;43.086;25.634;2023-04-26T10:18:17;97842.97;;;17.16;41.71
58668;BME280;59852;43.086;25.634;2023-04-26T10:20:43;97829.50;;;17.03;42.69
58668;BME280;59852;43.086;25.634;2023-04-26T10:23:17;97848.59;;;16.82;40.25
58668;BME280;59852;43.086;25.634;2023-04-26T10:25:45;97833.31;;;16.37;43.91
58668;BME280;59852;43.086;25.634;2023-04-26T10:28:10;97842.84;;;16.54;43.03
58668;BME280;59852;43.086;25.634;2023-04-26T10:30:52;97841.91;;;16.95;42.58
58668;BME280;59852;43.086;25.634;2023-04-26T10:33:18;97840.72;;;16.42;41.73
58668;BME280;59852;43.086;25.634;2023-04-26T10:36:03;97840.34;;;17.16;42.08
58668;BME280;59852;43.086;25.634;2023-04-26T10:38:29;97839.13;;;17.50;43.48
58668;BME280;59852;43.086;25.634;2023-04-26T10:40:55;97838.22;;;17.43;43.28
58668;BME280;59852;43.086;25.634;2023-04-26T10:43:26;97833.84;;;17.81;41.87
58668;BME280;59852;43.086;25.634;2023-04-26T10:45:52;97838.66;;;17.77;42.41
58668;BME280;59852;43.086;25.634;2023-04-26T10:48:21;97831.28;;;17.42;41.34
58668;BME280;59852;43.086;25.634;2023-04-26T10:54:10;97832.63;;;18.06;41.27
58668;BME280;59852;43.086;25.634;2023-04-26T10:56:11;97822.13;;;17.98;40.27
58668;BME280;59852;43.086;25.634;2023-04-26T10:59:12;97821.84;;;18.31;40.36
58668;BME280;59852;43.086;25.634;2023-04-26T11:01:38;97819.56;;;17.59;42.46
58668;BME280;59852;43.086;25.634;2023-04-26T11:04:04;97821.41;;;18.04;42.28
58668;BME280;59852;43.086;25.634;2023-04-26T11:06:50;97823.78;;;17.99;40.84
58668;BME280;59852;43.086;25.634;2023-04-26T11:12:03;97823.94;;;18.35;40.74
58668;BME280;59852;43.086;25.634;2023-04-26T11:14:29;97818.50;;;18.14;42.52
58668;BME280;59852;43.086;25.634;2023-04-26T11:16:55;97820.59;;;18.04;41.79
58668;BME280;59852;43.086;25.634;2023-04-26T11:19:21;97817.75;;;17.60;40.98
58668;BME280;59852;43.086;25.634;2023-04-26T11:21:46;97821.34;;;17.44;42.87
58668;BME280;59852;43.086;25.634;2023-04-26T11:24:13;97824.59;;;17.77;40.41
58668;BME280;59852;43.086;25.634;2023-04-26T11:26:39;97823.03;;;17.60;42.57
58668;BME280;59852;43.086;25.634;2023-04-26T11:29:06;97825.69;;;17.91;41.96
58668;BME280;59852;43.086;25.634;2023-04-26T11:31:31;97822.31;;;17.74;43.42
58668;BME280;59852;43.086;25.634;2023-04-26T11:34:04;97835.44;;;17.36;43.46
58668;BME280;59852;43.086;25.634;2023-04-26T11:36:29;97833.16;;;17.33;43.13
58668;BME280;59852;43.086;25.634;2023-04-26T11:38:55;97830.44;;;17.10;43.73
58668;BME280;59852;43.086;25.634;2023-04-26T11:41:21;97839.84;;;16.74;44.05
58668;BME280;59852;43.086;25.634;2023-04-26T11:43:47;97822.38;;;16.73;46.92
58668;BME280;59852;43.086;25.634;2023-04-26T11:46:12;97836.88;;;16.77;44.74
58668;BME280;59852;43.086;25.634;2023-04-26T11:48:38;97831.84;;;16.26;46.05
58668;BME280;59852;43.086;25.634;2023-04-26T11:51:04;97834.84;;;16.87;45.75
58668;BME280;59852;43.086;25.634;2023-04-26T11:53:36;97835.81;;;16.94;46.25
58668;BME280;59852;43.086;25.634;2023-04-26T11:56:03;97841.41;;;16.11;45.51
58668;BME280;59852;43.086;25.634;2023-04-26T11:58:29;97836.66;;;16.06;45.41
58668;BME280;59852;43.086;25.634;2023-04-26T12:00:58;97832.75;;;16.66;44.75
58668;BME280;59852;43.086;25.634;2023-04-26T12:03:33;97837.78;;;16.28;44.51
58668;BME280;59852;43.086;25.634;2023-04-26T12:06:02;97839.56;;;16.52;46.14
58668;BME280;59852;43.086;25.634;2023-04-26T12:08:27;97838.28;;;16.24;46.04
58668;BME280;59852;43.086;25.634;2023-04-26T12:10:53;97840.13;;;16.07;45.27
58668;BME280;59852;43.086;25.634;2023-04-26T12:13:19;97836.47;;;16.24;46.42
58668;BME280;59852;43.086;25.634;2023-04-26T12:15:44;97832.84;;;16.33;46.31
58668;BME280;59852;43.086;25.634;2023-04-26T12:18:10;97837.94;;;16.27;45.87
58668;BME280;59852;43.086;25.634;2023-04-26T12:20:37;97840.94;;;15.99;46.52
58668;BME280;59852;43.086;25.634;2023-04-26T12:23:03;97846.69;;;16.35;47.23
58668;BME280;59852;43.086;25.634;2023-04-26T12:25:29;97840.06;;;16.31;47.32
58668;BME280;59852;43.086;25.634;2023-04-26T12:27:55;97840.13;;;16.07;48.19
58668;BME280;59852;43.086;25.634;2023-04-26T12:30:21;97844.13;;;16.67;46.94
58668;BME280;59852;43.086;25.634;2023-04-26T12:32:46;97844.50;;;16.72;45.85
58668;BME280;59852;43.086;25.634;2023-04-26T12:35:12;97839.66;;;16.83;46.97
58668;BME280;59852;43.086;25.634;2023-04-26T12:37:37;97842.06;;;17.01;46.51
58668;BME280;59852;43.086;25.634;2023-04-26T12:40:03;97836.13;;;16.91;46.20
58668;BME280;59852;43.086;25.634;2023-04-26T12:42:28;97830.59;;;16.78;46.34
58668;BME280;59852;43.086;25.634;2023-04-26T12:44:54;97844.94;;;16.83;46.15
58668;BME280;59852;43.086;25.634;2023-04-26T12:47:19;97836.38;;;16.65;46.47
58668;BME280;59852;43.086;25.634;2023-04-26T12:49:45;97836.56;;;16.55;45.78
58668;BME280;59852;43.086;25.634;2023-04-26T12:52:10;97835.88;;;16.78;46.45
58668;BME280;59852;43.086;25.634;2023-04-26T12:54:35;97830.66;;;17.01;44.47
58668;BME280;59852;43.086;25.634;2023-04-26T12:57:01;97823.69;;;16.60;46.40
58668;BME280;59852;43.086;25.634;2023-04-26T12:59:26;97829.97;;;16.51;45.37